M I D A S
Marine Information and Data Acquisition System
Tripno 450 of the Zeeleeuw from 2003-03-21 07:10:06 to 2003-03-21 13:16:12
Back to CruiseResearch ActivitiesStationsMapUnderway DataData graphs

EquipmentUnitsComment
TimeDGPSUTC
LatitudeDGPSDM.mWGS84
LongitudeDGPSDM.mWGS84
HeadingGyrodeg 
SOGDGPSknotsSpeed over ground
COGDGPSdegCourse over ground
DepthEcho soundermeters200 kHz
Missing or incorrect values are displayed as -999
Navigation data collected by the RV Zeeleeuw from 2003-03-21 07:10:06 to 2003-03-21 13:16:12
                                                                                    Next 1000 lines
Time Latitude Longitude Heading SOG COG Depth
2003-03-21 07:10:16 51°13.599 2°56.103 120.6 0.1 183 6.7
2003-03-21 07:10:22 51°13.598 2°56.103 119.7 0.1 180 6.7
2003-03-21 07:10:27 51°13.598 2°56.103 118.9 0.1 185 6.7
2003-03-21 07:10:32 51°13.598 2°56.103 118   201 6.7
2003-03-21 07:10:36 51°13.598 2°56.103 117.2   216 6.7
2003-03-21 07:10:41 51°13.598 2°56.102 116.4 0.1 210 6.7
2003-03-21 07:10:46 51°13.598 2°56.102 115.7 0.1 200 6.8
2003-03-21 07:10:52 51°13.597 2°56.103 114.9 0.1 181 6.8
2003-03-21 07:10:56 51°13.598 2°56.103 114.2 0.1 175 6.8
2003-03-21 07:11:02 51°13.598 2°56.104 113.4 0.1 181 6.8
2003-03-21 07:11:07 51°13.598 2°56.106 112.6 0.1 178 6.8
2003-03-21 07:11:12 51°13.599 2°56.107 111.9 0.1 180 6.8
2003-03-21 07:11:16 51°13.6 2°56.108 111.2 0.1 193 6.8
2003-03-21 07:11:22 51°13.599 2°56.108 110.5 0.1 210 6.8
2003-03-21 07:11:27 51°13.6 2°56.108 109.8   217 6.8
2003-03-21 07:11:32 51°13.6 2°56.109 109.2   236 6.8
2003-03-21 07:11:37 51°13.6 2°56.108 108.9 0.1 257 6.8
2003-03-21 07:11:42 51°13.6 2°56.106 108.8 0.4 288 6.8
2003-03-21 07:11:47 51°13.601 2°56.104 108.8 0.7 287 6.8
2003-03-21 07:11:50 51°13.601 2°56.103 108.8 1.1 289 6.8
2003-03-21 07:11:56 51°13.602 2°56.098 108.8 1.5 289 6.9
2003-03-21 07:12:02 51°13.604 2°56.091 109.1 2.1 289 -999
2003-03-21 07:12:08 51°13.605 2°56.084 109.5 2.7 288 -999
2003-03-21 07:12:12 51°13.607 2°56.079 109.5 3 288 -999
2003-03-21 07:12:16 51°13.608 2°56.073 109.8 3.4 288 -999
2003-03-21 07:12:22 51°13.61 2°56.063 110.2 3.6 289 -999
2003-03-21 07:12:27 51°13.611 2°56.055 110.6 3.9 289 -999
2003-03-21 07:12:32 51°13.613 2°56.046 110.9 4.1 289 -999
2003-03-21 07:12:37 51°13.614 2°56.036 111.2 4.3 288 -999
2003-03-21 07:12:42 51°13.616 2°56.027 111.7 4.4 288 -999
2003-03-21 07:12:48 51°13.618 2°56.015 112.2 4.5 288 -999
2003-03-21 07:12:52 51°13.62 2°56.007 112.8 4.5 289 -999
2003-03-21 07:12:57 51°13.622 2°55.997 113.5 4.6 289 -999
2003-03-21 07:13:02 51°13.624 2°55.988 114.4 4.7 290 -999
2003-03-21 07:13:08 51°13.625 2°55.976 115.4 4.8 293 -999
2003-03-21 07:13:12 51°13.627 2°55.967 116.4 4.9 293 -999
2003-03-21 07:13:18 51°13.63 2°55.954 117.3 5 293 -999
2003-03-21 07:13:22 51°13.632 2°55.945 118 5.1 293 -999
2003-03-21 07:13:27 51°13.636 2°55.934 118.9 5.2 295 -999
2003-03-21 07:13:32 51°13.64 2°55.923 119.5 5.3 295 -999
2003-03-21 07:13:36 51°13.643 2°55.915 119.8 5.3 296 -999
2003-03-21 07:13:42 51°13.647 2°55.902 119.9 5.3 297 -999
2003-03-21 07:13:48 51°13.651 2°55.89 119.9 5.3 297 -999
2003-03-21 07:13:52 51°13.654 2°55.881 119.7 5.3 297 -999
2003-03-21 07:13:57 51°13.657 2°55.871 119.3 5.4 297 -999
2003-03-21 07:14:02 51°13.661 2°55.861 118.8 5.3 297 -999
2003-03-21 07:14:08 51°13.665 2°55.848 118.1 5.2 296 -999
2003-03-21 07:14:12 51°13.667 2°55.84 117.3 5.2 296 -999
2003-03-21 07:14:17 51°13.67 2°55.83 116.5 5.2 295 -999
2003-03-21 07:14:22 51°13.673 2°55.82 115.6 5.1 295 -999
2003-03-21 07:14:28 51°13.676 2°55.808 114.6 5.1 294 -999
2003-03-21 07:14:32 51°13.678 2°55.8 113.3 5 293 -999
2003-03-21 07:14:37 51°13.68 2°55.79 112 4.9 291 -999
2003-03-21 07:14:42 51°13.682 2°55.779 110.6 4.9 290 -999
2003-03-21 07:14:47 51°13.684 2°55.769 109.1 4.7 289 -999
2003-03-21 07:14:52 51°13.687 2°55.759 107.8 4.6 288 -999
2003-03-21 07:14:57 51°13.688 2°55.751 106.5 4.3 286 -999
2003-03-21 07:15:02 51°13.688 2°55.743 105.3 4.1 285 5.2
2003-03-21 07:15:07 51°13.689 2°55.737 104 3.7 285 -999
2003-03-21 07:15:11 51°13.689 2°55.732 101.6 3 283 9.7
2003-03-21 07:15:16 51°13.691 2°55.727 98.2 2.4 282 9.7
2003-03-21 07:15:21 51°13.692 2°55.722 95.4 2.1 280 9.7
2003-03-21 07:15:27 51°13.692 2°55.718 92.9 1.9 281 9.5
2003-03-21 07:15:32 51°13.693 2°55.714 90.1 1.5 280 9.5
2003-03-21 07:15:36 51°13.693 2°55.713 86.7 1.1 282 9.8
2003-03-21 07:15:42 51°13.693 2°55.712 82.7 0.8 287 9.4
2003-03-21 07:15:46 51°13.693 2°55.712 78.3 0.5 307 9.7
2003-03-21 07:15:51 51°13.693 2°55.712 73.3 0.3 356 9.8
2003-03-21 07:15:56 51°13.693 2°55.713 68.1 0.5 22 9.1
2003-03-21 07:16:02 51°13.694 2°55.715 62.5 0.7 38 10
2003-03-21 07:16:07 51°13.695 2°55.716 56.6 0.9 39 9.8
2003-03-21 07:16:12 51°13.696 2°55.718 50.9 1.1 39 9.8
2003-03-21 07:16:17 51°13.698 2°55.72 45.1 1.3 36 9.7
2003-03-21 07:16:22 51°13.7 2°55.721 39.4 1.5 28 9.9
2003-03-21 07:16:27 51°13.703 2°55.722 33.6 1.7 22 9.7
2003-03-21 07:16:32 51°13.706 2°55.722 27.9 1.9 15 9.8
2003-03-21 07:16:37 51°13.708 2°55.723 22.2 2 12 9.8
2003-03-21 07:16:42 51°13.712 2°55.723 16.5 2.1 6 9.6
2003-03-21 07:16:46 51°13.714 2°55.722 11.1 2.3 1 9.4
2003-03-21 07:16:51 51°13.718 2°55.721 5.7 2.5 355 9.2
2003-03-21 07:16:56 51°13.722 2°55.72 0.1 2.6 351 9.1
2003-03-21 07:17:02 51°13.726 2°55.718 354.6 2.7 346 9
2003-03-21 07:17:06 51°13.729 2°55.716 349.5 2.9 342 8.5
2003-03-21 07:17:12 51°13.734 2°55.712 345 3.1 338 8.6
2003-03-21 07:17:17 51°13.739 2°55.708 341.1 3.3 335 8.5
2003-03-21 07:17:21 51°13.742 2°55.705 338.4 3.5 332 8.5
2003-03-21 07:17:26 51°13.748 2°55.7 336.8 3.7 330 8
2003-03-21 07:17:32 51°13.753 2°55.695 336.4 4 330 -999
2003-03-21 07:17:36 51°13.757 2°55.692 336.4 4.5 330 8.5
2003-03-21 07:17:42 51°13.763 2°55.685 336.3 4.9 330 8.5
2003-03-21 07:17:47 51°13.77 2°55.679 336.1 5.3 329 8.1
2003-03-21 07:17:51 51°13.775 2°55.674 335.8 5.5 330 8.7
2003-03-21 07:17:56 51°13.782 2°55.668 335.7 5.7 329 8.5
2003-03-21 07:18:02 51°13.789 2°55.66 336.1 6 330 8.5
2003-03-21 07:18:06 51°13.795 2°55.655 337 6.1 330 8.8
2003-03-21 07:18:11 51°13.803 2°55.649 337.9 6.2 331 8.8
2003-03-21 07:18:16 51°13.81 2°55.643 338.4 6.2 331 8.8
2003-03-21 07:18:22 51°13.819 2°55.636 338.6 6.4 331 8.8
2003-03-21 07:18:27 51°13.827 2°55.631 338.9 6.5 332 8.7
2003-03-21 07:18:31 51°13.834 2°55.625 339.5 6.6 332 8.7
2003-03-21 07:18:36 51°13.843 2°55.619 339.8 6.6 332 8.8
2003-03-21 07:18:42 51°13.853 2°55.612 340 6.7 333 8.7
2003-03-21 07:18:47 51°13.863 2°55.605 340.6 6.9 334 8.6
2003-03-21 07:18:52 51°13.873 2°55.598 340.9 6.9 335 8.7
2003-03-21 07:18:56 51°13.879 2°55.593 340.6 7 335 8.7
2003-03-21 07:19:01 51°13.887 2°55.588 340.4 7 335 8.6
2003-03-21 07:19:06 51°13.895 2°55.582 340.4 7.1 335 8.6
2003-03-21 07:19:12 51°13.907 2°55.574 340.5 7.1 335 8.6
2003-03-21 07:19:16 51°13.914 2°55.569 340.5 7.2 335 8.7
2003-03-21 07:19:22 51°13.926 2°55.562 340.5 7.2 336 8.7
2003-03-21 07:19:27 51°13.934 2°55.555 340.5 7.2 336 8.7
2003-03-21 07:19:32 51°13.943 2°55.549 340.5 7.3 336 8.6
2003-03-21 07:19:37 51°13.951 2°55.543 341.2 7.3 336 8.7
2003-03-21 07:19:41 51°13.958 2°55.538 341.7 7.3 337 8.6
2003-03-21 07:19:46 51°13.968 2°55.532 341.7 7.3 337 8.6
2003-03-21 07:19:52 51°13.979 2°55.524 341.6 7.4 336 8.5
2003-03-21 07:19:57 51°13.989 2°55.517 341.6 7.4 337 8.5
2003-03-21 07:20:01 51°13.996 2°55.511 341.6 7.5 337 8.5
2003-03-21 07:20:07 51°14.008 2°55.503 341.1 7.5 337 8.4
2003-03-21 07:20:11 51°14.016 2°55.498 341 7.5 336 8.4
2003-03-21 07:20:17 51°14.028 2°55.49 341 7.6 336 8.4
2003-03-21 07:20:21 51°14.036 2°55.484 341 7.8 336 8.4
2003-03-21 07:20:27 51°14.051 2°55.474 340.6 7.8 335 8.4
2003-03-21 07:20:31 51°14.058 2°55.468 341.1 7.7 336 8.2
2003-03-21 07:20:37 51°14.068 2°55.462 342.1 7.8 336 8.1
2003-03-21 07:20:42 51°14.075 2°55.457 342.3 7.8 336 8.2
2003-03-21 07:20:47 51°14.083 2°55.451 341.9 7.7 336 8.3
2003-03-21 07:20:51 51°14.089 2°55.446 341.6 7.6 336 8.5
2003-03-21 07:20:56 51°14.097 2°55.441 341.6 7.5 336 8.5
2003-03-21 07:21:02 51°14.109 2°55.433 341.7 7.5 336 8.5
2003-03-21 07:21:06 51°14.117 2°55.427 341.4 7.4 336 8.5
2003-03-21 07:21:11 51°14.125 2°55.421 340.7 7.4 335 8.5
2003-03-21 07:21:16 51°14.134 2°55.414 339.9 7.4 335 8.5
2003-03-21 07:21:22 51°14.145 2°55.406 339.3 7.4 334 8.6
2003-03-21 07:21:27 51°14.154 2°55.398 338.6 7.5 333 8.4
2003-03-21 07:21:32 51°14.163 2°55.39 337.6 7.5 332 8.6
2003-03-21 07:21:37 51°14.171 2°55.382 336.5 7.5 331 8.5
2003-03-21 07:21:41 51°14.178 2°55.375 334.9 7.6 329 8.5
2003-03-21 07:21:46 51°14.187 2°55.366 332.8 7.6 328 8.5
2003-03-21 07:21:52 51°14.198 2°55.354 331.5 7.7 326 8.6
2003-03-21 07:21:56 51°14.205 2°55.346 330 7.7 325 8.5
2003-03-21 07:22:02 51°14.216 2°55.333 328.3 7.6 324 8.6
2003-03-21 07:22:07 51°14.227 2°55.321 326.9 7.6 323 8.6
2003-03-21 07:22:12 51°14.235 2°55.31 325.8 7.6 321 8.6
2003-03-21 07:22:16 51°14.241 2°55.301 324.5 7.6 320 8.3
2003-03-21 07:22:22 51°14.25 2°55.288 323.4 7.6 318 8.6
2003-03-21 07:22:27 51°14.257 2°55.276 321.7 7.7 317 8.6
2003-03-21 07:22:32 51°14.263 2°55.265 319.7 7.7 315 8.6
2003-03-21 07:22:37 51°14.27 2°55.252 318.2 7.7 314 8.6
2003-03-21 07:22:41 51°14.275 2°55.242 317.2 7.7 313 8.7
2003-03-21 07:22:46 51°14.282 2°55.229 316.4 7.7 312 8.7
2003-03-21 07:22:52 51°14.29 2°55.214 315.6 7.7 311 8.7
2003-03-21 07:22:56 51°14.295 2°55.203 314.1 7.7 310 8.8
2003-03-21 07:23:02 51°14.303 2°55.188 313.2 7.7 309 8.8
2003-03-21 07:23:07 51°14.311 2°55.176 312.7 7.7 308 8.8
2003-03-21 07:23:12 51°14.318 2°55.162 311.6 7.8 307 8.8
2003-03-21 07:23:17 51°14.324 2°55.148 310.6 7.8 306 8.9
2003-03-21 07:23:22 51°14.33 2°55.132 309.1 8.1 305 8.9
2003-03-21 07:23:27 51°14.337 2°55.117 307.7 8.3 304 8.3
2003-03-21 07:23:32 51°14.343 2°55.101 307.3 8.4 303 8.6
2003-03-21 07:23:37 51°14.349 2°55.084 307.2 8.5 302 8.9
2003-03-21 07:23:41 51°14.354 2°55.071 307.3 8.7 302 9
2003-03-21 07:23:46 51°14.36 2°55.054 307.7 8.8 302 9.3
2003-03-21 07:23:52 51°14.367 2°55.034 309.1 8.9 302 9
2003-03-21 07:23:56 51°14.372 2°55.02 310.5 9 303 9
2003-03-21 07:24:02 51°14.381 2°55 312.1 9 305 8.9
2003-03-21 07:24:06 51°14.387 2°54.987 313.8 9.1 305 9.2
2003-03-21 07:24:12 51°14.396 2°54.968 315.5 9.1 307 9.4
2003-03-21 07:24:17 51°14.404 2°54.952 316.8 9.2 308 9.5
2003-03-21 07:24:22 51°14.412 2°54.936 318.5 9.3 310 9.4
2003-03-21 07:24:27 51°14.42 2°54.921 320 9.3 310 9.4
2003-03-21 07:24:32 51°14.429 2°54.905 321.1 9.3 310 9.4
2003-03-21 07:24:37 51°14.437 2°54.888 321.8 9.4 310 9.4
2003-03-21 07:24:41 51°14.443 2°54.875 323.6 9.5 310 9.1
2003-03-21 07:24:46 51°14.453 2°54.859 325.9 9.6 311 9.1
2003-03-21 07:24:52 51°14.464 2°54.842 328.4 9.6 314 9.1
2003-03-21 07:24:56 51°14.473 2°54.832 334.8 9.4 319 8.7
2003-03-21 07:25:02 51°14.486 2°54.818 338.1 9.4 324 8.6
2003-03-21 07:25:07 51°14.496 2°54.808 340.5 9.2 327 8.2
2003-03-21 07:25:12 51°14.507 2°54.797 342.5 9 329 8.6
2003-03-21 07:25:17 51°14.518 2°54.789 346.3 8.9 332 8.6
2003-03-21 07:25:22 51°14.529 2°54.783 351.1 8.9 337 8.5
2003-03-21 07:25:27 51°14.54 2°54.778 355.6 8.7 342 8.5
2003-03-21 07:25:32 51°14.552 2°54.774 0.2 8.6 346 8.4
2003-03-21 07:25:37 51°14.564 2°54.773 5 8.4 351 8.4
2003-03-21 07:25:41 51°14.573 2°54.772 9.5 8.3 356 8.5
2003-03-21 07:25:46 51°14.584 2°54.774 13.7 8.2   8.3
2003-03-21 07:25:52 51°14.599 2°54.775 17.1 8.2 4 8.4
2003-03-21 07:25:56 51°14.609 2°54.777 19.5 8.2 7 8.3
2003-03-21 07:26:02 51°14.623 2°54.782 21.5 8.2 9 8.2
2003-03-21 07:26:07 51°14.634 2°54.786 23.2 8.2 11 8.2
2003-03-21 07:26:12 51°14.645 2°54.791 25 8.1 13 8.1
2003-03-21 07:26:17 51°14.655 2°54.796 26.5 8 14 8.1
2003-03-21 07:26:22 51°14.664 2°54.801 27.9 7.6 16 8.1
2003-03-21 07:26:27 51°14.673 2°54.806 29.3 7 17 8.1
2003-03-21 07:26:30 51°14.678 2°54.809 30.7 6.5 19 7.8
2003-03-21 07:26:36 51°14.688 2°54.814 31.7 5.9 19 8.1
2003-03-21 07:26:40 51°14.693 2°54.817 32.1 5.5 19 8.1
2003-03-21 07:26:46 51°14.701 2°54.821 32 5.1 18 8.1
2003-03-21 07:26:52 51°14.708 2°54.824 31.2 4.8 17 8.2
2003-03-21 07:26:56 51°14.712 2°54.826 29.9 4.5 15 8.2
2003-03-21 07:27:01 51°14.718 2°54.827 28.4 4.2 12 8.1
2003-03-21 07:27:07 51°14.724 2°54.829 26.8 4 10 8.1
2003-03-21 07:27:12 51°14.729 2°54.83 24.5 3.7 9 8
2003-03-21 07:27:17 51°14.734 2°54.83 22.5 3.5 7 8.1
2003-03-21 07:27:22 51°14.739 2°54.83 20.7 3.4 1 8
2003-03-21 07:27:27 51°14.743 2°54.829 18.7 3.3 358 8
2003-03-21 07:27:32 51°14.748 2°54.829 17.4 3.2 355 8
2003-03-21 07:27:37 51°14.752 2°54.828 15.6 3.1 352 8
2003-03-21 07:27:40 51°14.754 2°54.827 14.1 3 349 -999
2003-03-21 07:27:47 51°14.76 2°54.824 12.6 3 346 8
2003-03-21 07:27:52 51°14.764 2°54.823 11.1 2.9 344 7.9
2003-03-21 07:27:56 51°14.767 2°54.821 10.1 2.9 342 7.9
2003-03-21 07:28:02 51°14.771 2°54.819 9.2 2.8 340 7.9
2003-03-21 07:28:07 51°14.775 2°54.816 8.3 2.8 339 7.9
2003-03-21 07:28:12 51°14.779 2°54.814 7.3 2.8 337 7.9
2003-03-21 07:28:16 51°14.781 2°54.812 6.5 2.7 335 12.1
2003-03-21 07:28:22 51°14.785 2°54.809 5.8 2.6 333 12.2
2003-03-21 07:28:27 51°14.788 2°54.806 5.2 2.5 331 12.2
2003-03-21 07:28:32 51°14.791 2°54.803 4.7 2.5 329 12.2
2003-03-21 07:28:36 51°14.793 2°54.8 4.3 2.5 327 12.1
2003-03-21 07:28:40 51°14.795 2°54.798 3.7 2.4 326 12.1
2003-03-21 07:28:46 51°14.799 2°54.795 3.3 2.4 325 12
2003-03-21 07:28:52 51°14.802 2°54.791 3 2.3 323 12
2003-03-21 07:28:56 51°14.804 2°54.789 2.7 2.3 321 12.1
2003-03-21 07:29:02 51°14.807 2°54.785 2.5 2.2 319 12.1
2003-03-21 07:29:07 51°14.809 2°54.781 2.2 2.2 318 12.1
2003-03-21 07:29:11 51°14.811 2°54.778 2.1 2.2 318 12.1
2003-03-21 07:29:16 51°14.813 2°54.774 2 2.2 316 12.1
2003-03-21 07:29:22 51°14.815 2°54.77 2 2.2 316 12
2003-03-21 07:29:27 51°14.817 2°54.767 1.9 2.2 314 12.1
2003-03-21 07:29:32 51°14.819 2°54.763 1.8 2.1 314 12.1
2003-03-21 07:29:37 51°14.821 2°54.76 1.8 2.1 313 12.2
2003-03-21 07:29:41 51°14.822 2°54.758 2 2.1 315 12.1
2003-03-21 07:29:46 51°14.825 2°54.754 2.2 2.2 319 12.1
2003-03-21 07:29:52 51°14.829 2°54.75 2.7 2.6 327 12.3
2003-03-21 07:29:57 51°14.834 2°54.747 3.5 3.2 333 12.2
2003-03-21 07:30:01 51°14.839 2°54.745 4.4 4.1 341 12.2
2003-03-21 07:30:06 51°14.846 2°54.742 5.8 4.8 345 12
2003-03-21 07:30:11 51°14.855 2°54.74 7 5.8 348 12
2003-03-21 07:30:16 51°14.865 2°54.737 5.6 6.5 349 12
2003-03-21 07:30:21 51°14.876 2°54.732 2.7 7.5 347 12
2003-03-21 07:30:27 51°14.889 2°54.726 358.3 8.1 345 11.9
2003-03-21 07:30:31 51°14.899 2°54.721 354.3 8.7 342 11.8
2003-03-21 07:30:36 51°14.912 2°54.713 351.4 9.2 339 11.6
2003-03-21 07:30:41 51°14.924 2°54.704 350 9.6 336 11.5
2003-03-21 07:30:47 51°14.938 2°54.692 348.6 9.9 335 11.5
2003-03-21 07:30:51 51°14.948 2°54.684 346.3 10.2 334 11.6
2003-03-21 07:30:57 51°14.964 2°54.671 343.1 10.4 332 11.1
2003-03-21 07:31:02 51°14.976 2°54.658 339 10.5 330 7.3
2003-03-21 07:31:07 51°14.988 2°54.643 336 10.7 326 5.4
2003-03-21 07:31:11 51°14.999 2°54.632 335.8 10.9 325 7.2
2003-03-21 07:31:17 51°15.014 2°54.616 336.5 11 326 7.2
2003-03-21 07:31:21 51°15.025 2°54.605 337.1 11.1 326 7
2003-03-21 07:31:27 51°15.041 2°54.589 337.5 11.4 327 6.8
2003-03-21 07:31:31 51°15.051 2°54.578 337.6 11.5 328 6.9
2003-03-21 07:31:37 51°15.067 2°54.561 337.6 11.5 328 6.8
2003-03-21 07:31:42 51°15.081 2°54.548 338 11.6 328 6.8
2003-03-21 07:31:47 51°15.094 2°54.534 338.2 11.6 328 6.9
2003-03-21 07:31:52 51°15.109 2°54.521 338.2 11.6 329 6.8
2003-03-21 07:31:57 51°15.123 2°54.507 338 11.8 328 6.8
2003-03-21 07:32:01 51°15.134 2°54.496 338.1 11.9 328 9.9
2003-03-21 07:32:07 51°15.151 2°54.479 337.8 12 328 10
2003-03-21 07:32:12 51°15.165 2°54.464 337.7 12.1 328 10.1
2003-03-21 07:32:17 51°15.18 2°54.45 337.5 12.2 328 -999
2003-03-21 07:32:21 51°15.191 2°54.438 336.9 12.3 327 7.2
2003-03-21 07:32:27 51°15.209 2°54.42 336.5 12.4 327 7.3
2003-03-21 07:32:31 51°15.221 2°54.407 335.7 12.6 326 7.2
2003-03-21 07:32:37 51°15.238 2°54.388 335.5 12.7 326 -999
2003-03-21 07:32:41 51°15.25 2°54.375 335.4 12.7 325 10.8
2003-03-21 07:32:47 51°15.267 2°54.356 336 12.7 326 7.4
2003-03-21 07:32:51 51°15.279 2°54.343 336.1 12.8 326 7.4
2003-03-21 07:32:57 51°15.296 2°54.324 336.7 12.8 326 7.5
2003-03-21 07:33:01 51°15.308 2°54.312 336.8 12.9 327 -999
2003-03-21 07:33:07 51°15.326 2°54.293 337.1 13 327 7.5
2003-03-21 07:33:11 51°15.338 2°54.28 336.9 13 327 7.6
2003-03-21 07:33:17 51°15.357 2°54.261 336.3 13.1 326 7.7
2003-03-21 07:33:21 51°15.368 2°54.247 335.8 13.2 326 7.8
2003-03-21 07:33:27 51°15.386 2°54.227 335.7 13.2 325 7.7
2003-03-21 07:33:32 51°15.402 2°54.21 335.9 13.2 325 7.9
2003-03-21 07:33:37 51°15.417 2°54.193 335.3 13.4 325 7.9
2003-03-21 07:33:41 51°15.43 2°54.18 335.6 13.4 325 8.1
2003-03-21 07:33:47 51°15.449 2°54.159 334.6 13.5 325 8.1
2003-03-21 07:33:52 51°15.464 2°54.141 333.7 13.6 324 8.1
2003-03-21 07:33:57 51°15.478 2°54.122 333.3 13.6 323 8.3
2003-03-21 07:34:01 51°15.489 2°54.106 332.8 13.3 320 -999
2003-03-21 07:34:07 51°15.506 2°54.083 332.6 12.7 315 8.3
2003-03-21 07:34:12 51°15.521 2°54.064 333.5 13 318 8.3
2003-03-21 07:34:17 51°15.536 2°54.045 333.8 13.6 321 8.4
2003-03-21 07:34:21 51°15.548 2°54.031 335.3 13.8 323 8.5
2003-03-21 07:34:27 51°15.567 2°54.01 336.1 13.8 325 8.6
2003-03-21 07:34:31 51°15.579 2°53.997 336.4 13.8 325 8.7
2003-03-21 07:34:37 51°15.598 2°53.976 337.2 13.8 325 8.7
2003-03-21 07:34:41 51°15.611 2°53.963 337.5 13.8 326 8.8
2003-03-21 07:34:47 51°15.631 2°53.942 337.6 13.8 326 8.9
2003-03-21 07:34:51 51°15.644 2°53.928 337.3 13.8 326 9
2003-03-21 07:34:57 51°15.663 2°53.907 337.1 13.9 325 9
2003-03-21 07:35:01 51°15.675 2°53.893 336.7 13.9 325 9.1
2003-03-21 07:35:07 51°15.694 2°53.872 336.7 14 325 9.2
2003-03-21 07:35:11 51°15.707 2°53.858 336.8 14 325 9.3
2003-03-21 07:35:17 51°15.726 2°53.837 336.8 14 325 9.3
2003-03-21 07:35:21 51°15.738 2°53.822 337 14 325 9.4
2003-03-21 07:35:27 51°15.757 2°53.801 336.9 14 325 9.4
2003-03-21 07:35:31 51°15.77 2°53.786 337.2 14 325 9.5
2003-03-21 07:35:37 51°15.789 2°53.765 337.1 14 325 9.5
2003-03-21 07:35:41 51°15.802 2°53.751 337.2 14 326 9.7
2003-03-21 07:35:47 51°15.821 2°53.73 337.2 14 326 9.7
2003-03-21 07:35:51 51°15.834 2°53.716 337.2 14 326 9.7
2003-03-21 07:35:57 51°15.853 2°53.695 337.4 14 325 9.8
2003-03-21 07:36:01 51°15.867 2°53.681 337.4 14 326 9.8
2003-03-21 07:36:07 51°15.886 2°53.66 337.5 14.1 326 9.8
2003-03-21 07:36:11 51°15.899 2°53.646 337.3 14.1 326 9.9
2003-03-21 07:36:17 51°15.918 2°53.625 336.8 14 325 10
2003-03-21 07:36:21 51°15.931 2°53.611 336.8 14 325 10
2003-03-21 07:36:27 51°15.95 2°53.589 336.8 14 325 10.2
2003-03-21 07:36:32 51°15.966 2°53.572 337.2 14.1 325 10.1
2003-03-21 07:36:37 51°15.982 2°53.555 337.1 14.1 326 10.1
2003-03-21 07:36:41 51°15.995 2°53.541 337.5 14.1 326 10.2
2003-03-21 07:36:46 51°16.011 2°53.524 337.5 14 326 10.2
2003-03-21 07:36:51 51°16.028 2°53.506 337.5 14 326 10.3
2003-03-21 07:36:57 51°16.047 2°53.486 337.5 14 326 10.3
2003-03-21 07:37:02 51°16.062 2°53.468 337.5 14 326 10.4
2003-03-21 07:37:06 51°16.075 2°53.454 337.5 14 326 10.4
2003-03-21 07:37:11 51°16.092 2°53.437 337.2 14 326 10.4
2003-03-21 07:37:17 51°16.111 2°53.416 336.8 14 325 10.4
2003-03-21 07:37:21 51°16.124 2°53.402 336.6 14.1 325 10.5
2003-03-21 07:37:27 51°16.143 2°53.381 336.6 14.1 325 10.6
2003-03-21 07:37:31 51°16.156 2°53.367 336.7 14.1 325 10.5
2003-03-21 07:37:37 51°16.175 2°53.346 336.9 14.1 325 10.6
2003-03-21 07:37:41 51°16.187 2°53.332 337 14.1 325 10.6
2003-03-21 07:37:47 51°16.206 2°53.311 337.2 14 326 10.7
2003-03-21 07:37:52 51°16.222 2°53.293 337.5 14 326 10.7
2003-03-21 07:37:57 51°16.239 2°53.276 337.3 14.1 326 10.7
2003-03-21 07:38:01 51°16.252 2°53.263 337.5 14.1 326 10.8
2003-03-21 07:38:07 51°16.272 2°53.243 337.5 14.1 326 10.8
2003-03-21 07:38:12 51°16.288 2°53.226 337.4 14.1 326 10.7
2003-03-21 07:38:17 51°16.305 2°53.208 337.5 14.1 326 10.8
2003-03-21 07:38:21 51°16.317 2°53.194 337.5 14.1 326 10.8
2003-03-21 07:38:27 51°16.337 2°53.173 337.3 14.1 326 10.8
2003-03-21 07:38:32 51°16.352 2°53.155 337.1 14.1 326 10.8
2003-03-21 07:38:37 51°16.369 2°53.138 336.7 14.1 326 10.8
2003-03-21 07:38:42 51°16.385 2°53.121 337 14.1 326 10.8
2003-03-21 07:38:47 51°16.401 2°53.104 337.5 14.1 327 10.8
2003-03-21 07:38:51 51°16.415 2°53.09 337.3 14.1 327 10.7
2003-03-21 07:38:57 51°16.434 2°53.069 336.9 14.1 326 10.7
2003-03-21 07:39:01 51°16.447 2°53.055 336.8 14.2 326 10.7
2003-03-21 07:39:07 51°16.466 2°53.034 336.6 14.1 326 10.6
2003-03-21 07:39:12 51°16.482 2°53.016 336.9 14.1 326 10.6
2003-03-21 07:39:17 51°16.499 2°53 337.2 14.1 326 10.5
2003-03-21 07:39:21 51°16.512 2°52.985 337.2 14.1 326 10.4
2003-03-21 07:39:27 51°16.532 2°52.965 337.3 14.1 326 10.3
2003-03-21 07:39:32 51°16.548 2°52.947 337.1 14.1 327 10.2
2003-03-21 07:39:37 51°16.564 2°52.93 336.9 14.1 326 10.2
2003-03-21 07:39:41 51°16.578 2°52.917 337 14.1 326 10.1
2003-03-21 07:39:47 51°16.597 2°52.896 337.3 14.1 326 9.9
2003-03-21 07:39:51 51°16.61 2°52.882 336.8 14.1 326 9.9
2003-03-21 07:39:57 51°16.629 2°52.861 337.2 14.1 326 9.7
2003-03-21 07:40:01 51°16.642 2°52.847 337.1 14.1 326 9.7
2003-03-21 07:40:07 51°16.662 2°52.827 337.2 14 326 9.6
2003-03-21 07:40:12 51°16.678 2°52.809 337.1 14 326 9.5
2003-03-21 07:40:17 51°16.694 2°52.792 337.1 14 326 9.3
2003-03-21 07:40:21 51°16.707 2°52.779 337.2 14 327 9
2003-03-21 07:40:27 51°16.726 2°52.758 337.5 13.9 327 8.9
2003-03-21 07:40:32 51°16.742 2°52.742 337.4 13.9 327 8.7
2003-03-21 07:40:37 51°16.758 2°52.726 337.3 13.8 326 8.1
2003-03-21 07:40:41 51°16.771 2°52.712 337.2 13.7 327 8
2003-03-21 07:40:47 51°16.79 2°52.693 337.7 13.5 327 8.2
2003-03-21 07:40:51 51°16.802 2°52.681 337.4 13.4 328 8.2
2003-03-21 07:40:57 51°16.821 2°52.662 337.5 13.4 328 8
2003-03-21 07:41:01 51°16.833 2°52.649 337.6 13.4 328 8
2003-03-21 07:41:07 51°16.853 2°52.631 337.6 13.5 328 7.8
2003-03-21 07:41:11 51°16.866 2°52.618 337.6 13.5 329 7.8
2003-03-21 07:41:17 51°16.884 2°52.601 338 13.4 329 8
2003-03-21 07:41:21 51°16.897 2°52.588 338 13.3 329 8.1
2003-03-21 07:41:27 51°16.916 2°52.57 337.5 13.4 328 8.2
2003-03-21 07:41:32 51°16.933 2°52.554 337.5 13.5 329 8.5
2003-03-21 07:41:37 51°16.949 2°52.538 336.9 13.6 328 8.3
2003-03-21 07:41:41 51°16.961 2°52.525 337 13.7 328 8.1
2003-03-21 07:41:47 51°16.981 2°52.506 337.7 13.8 328 7.9
2003-03-21 07:41:50 51°16.991 2°52.497 338.5 13.7 329 7.9
2003-03-21 07:41:57 51°17.013 2°52.477 339.2 13.5 330 7.9
2003-03-21 07:42:01 51°17.026 2°52.465 339.3 13.4 330 8
2003-03-21 07:42:06 51°17.042 2°52.449 339 13.4 329 8
2003-03-21 07:42:11 51°17.058 2°52.435 339.6 13.4 330 8
2003-03-21 07:42:17 51°17.078 2°52.418 341.3 13.5 330 8.1
2003-03-21 07:42:22 51°17.094 2°52.404 341.9 13.5 332 8.1
2003-03-21 07:42:27 51°17.111 2°52.391 342.5 13.5 333 8.2
2003-03-21 07:42:32 51°17.128 2°52.377 342.9 13.5 333 8.3
2003-03-21 07:42:37 51°17.145 2°52.364 342.6 13.5 333 8.3
2003-03-21 07:42:41 51°17.158 2°52.353 342.3 13.5 332 8.3
2003-03-21 07:42:47 51°17.178 2°52.335 341.6 13.6 331 8.4
2003-03-21 07:42:51 51°17.191 2°52.323 341.3 13.7 331 8.5
2003-03-21 07:42:57 51°17.211 2°52.307 341.8 13.8 331 8.6
2003-03-21 07:43:02 51°17.228 2°52.293 343.2 13.7 333 8.6
2003-03-21 07:43:07 51°17.245 2°52.281 344.4 13.7 334 8.6
2003-03-21 07:43:12 51°17.263 2°52.269 345.2 13.7 335 8.7
2003-03-21 07:43:17 51°17.28 2°52.256 346.2 13.7 336 8.7
2003-03-21 07:43:21 51°17.294 2°52.248 348.2 13.7 338 8.8
2003-03-21 07:43:27 51°17.316 2°52.235 349.2 13.7 339 8.9
2003-03-21 07:43:32 51°17.334 2°52.226 351.9 13.6 340 8.7
2003-03-21 07:43:37 51°17.352 2°52.218 353.2 13.6 343 8.8
2003-03-21 07:43:41 51°17.367 2°52.212 354.1 13.6 343 8.8
2003-03-21 07:43:47 51°17.389 2°52.204 355.6 13.5 345 8.8
2003-03-21 07:43:52 51°17.407 2°52.196 356.1 13.5 346 8.8
2003-03-21 07:43:57 51°17.425 2°52.191 357.8 13.5 347 8.7
2003-03-21 07:44:01 51°17.44 2°52.187 358.5 13.5 348 8.8
2003-03-21 07:44:07 51°17.461 2°52.181 359.3 13.5 349 8.8
2003-03-21 07:44:12 51°17.479 2°52.176 0.1 13.4 349 8.9
2003-03-21 07:44:17 51°17.497 2°52.171 0.4 13.4 351 8.7
2003-03-21 07:44:22 51°17.515 2°52.166 0.5 13.4 351 8.9
2003-03-21 07:44:27 51°17.533 2°52.161 0.4 13.4 350 8.8
2003-03-21 07:44:31 51°17.548 2°52.158 0.6 13.3 351 8.8
2003-03-21 07:44:37 51°17.57 2°52.153 1.4 13.3 351 8.9
2003-03-21 07:44:41 51°17.585 2°52.15 2.1 13.3 352 8.8
2003-03-21 07:44:46 51°17.603 2°52.146 2.8 13.3 353 8.7
2003-03-21 07:44:51 51°17.622 2°52.143 3.8 13.3 353 8.7
2003-03-21 07:44:57 51°17.643 2°52.14 4.3 13.2 355 8.6
2003-03-21 07:45:02 51°17.662 2°52.137 4.1 13.2 355 8.7
2003-03-21 07:45:06 51°17.676 2°52.135 3.9 13.3 355 8.8
2003-03-21 07:45:11 51°17.695 2°52.131 3.1 13.3 354 8.7
2003-03-21 07:45:17 51°17.718 2°52.127 2.9 13.3 354 8.8
2003-03-21 07:45:21 51°17.732 2°52.124 2.1 13.3 353 8.7
2003-03-21 07:45:27 51°17.754 2°52.119 2.4 13.3 353 8.7
2003-03-21 07:45:31 51°17.769 2°52.117 2.9 13.3 353 8.7
2003-03-21 07:45:37 51°17.791 2°52.114 3.3 13.3 354 8.8
2003-03-21 07:45:41 51°17.805 2°52.112 3.3 13.3 354 8.7
2003-03-21 07:45:47 51°17.827 2°52.108 3.4 13.3 354 8.7
2003-03-21 07:45:52 51°17.845 2°52.105 3.4 13.3 353 8.6
2003-03-21 07:45:57 51°17.863 2°52.1 1.7 13.2 353 8.7
2003-03-21 07:46:01 51°17.877 2°52.094 357.9 13.2 349 8.7
2003-03-21 07:46:07 51°17.898 2°52.083 352.6 13.3 345 8.6
2003-03-21 07:46:11 51°17.912 2°52.073 347.6 13.4 339 8.7
2003-03-21 07:46:16 51°17.929 2°52.06 345 13.5 336 8.6
2003-03-21 07:46:21 51°17.945 2°52.046 341.7 13.5 333 8.8
2003-03-21 07:46:27 51°17.965 2°52.028 340.4 13.5 331 8.7
2003-03-21 07:46:32 51°17.981 2°52.013 338.9 13.5 329 8.9
2003-03-21 07:46:37 51°17.997 2°51.996 337.9 13.5 328 8.8
2003-03-21 07:46:42 51°18.012 2°51.978 334.5 13.6 326 8.9
2003-03-21 07:46:47 51°18.027 2°51.958 332 13.8 323 8.9
2003-03-21 07:46:52 51°18.041 2°51.938 329.7 13.8 321 8.9
2003-03-21 07:46:57 51°18.056 2°51.918 328.2 13.9 319 9
2003-03-21 07:47:01 51°18.067 2°51.9 326.3 14 318 8.9
2003-03-21 07:47:07 51°18.083 2°51.873 322.7 14 314 9.1
2003-03-21 07:47:11 51°18.093 2°51.855 320.8 14 312 9.1
2003-03-21 07:47:17 51°18.108 2°51.825 319 14.1 310 9.2
2003-03-21 07:47:21 51°18.118 2°51.805 317.1 14.1 308 9.3
2003-03-21 07:47:27 51°18.131 2°51.774 313.2 14.2 306 9.3
2003-03-21 07:47:30 51°18.137 2°51.757 310.5 14.3 303 9.3
2003-03-21 07:47:37 51°18.151 2°51.718 308.4 14.4 300 9.4
2003-03-21 07:47:41 51°18.158 2°51.695 306.8 14.4 299 9.5
2003-03-21 07:47:47 51°18.169 2°51.661 305.5 14.5 297 9.7
2003-03-21 07:47:51 51°18.176 2°51.638 303.8 14.6 296 9.7
2003-03-21 07:47:57 51°18.184 2°51.601 299.7 14.6 293 9.8
2003-03-21 07:48:01 51°18.189 2°51.577 296.1 14.6 290 9.8
2003-03-21 07:48:07 51°18.195 2°51.539 294.4 14.7 288 10
2003-03-21 07:48:12 51°18.2 2°51.507 292 14.8 285 10.1
2003-03-21 07:48:17 51°18.205 2°51.476 290.5 14.8 284 10.2
2003-03-21 07:48:21 51°18.208 2°51.45 289.1 14.8 282 10.2
2003-03-21 07:48:27 51°18.212 2°51.411 287.6 14.8 281 10.4
2003-03-21 07:48:31 51°18.214 2°51.384 284.5 14.9 279 10.4
2003-03-21 07:48:37 51°18.216 2°51.344 283.3 14.9 277 10.5
2003-03-21 07:48:41 51°18.217 2°51.318 280.5 15 275 10.7
2003-03-21 07:48:47 51°18.219 2°51.278 278.7 15 273 10.7
2003-03-21 07:48:52 51°18.219 2°51.245 278.8 15 272 10.8
2003-03-21 07:48:57 51°18.22 2°51.212 278.1 15 273 11
2003-03-21 07:49:01 51°18.22 2°51.185 276.8 15 271 11
2003-03-21 07:49:06 51°18.22 2°51.151 277.1 15.1 271 11.1
2003-03-21 07:49:12 51°18.22 2°51.111 276.6 15.1 270 11.2
2003-03-21 07:49:17 51°18.22 2°51.078 276.1 15.1 271 11.2
2003-03-21 07:49:21 51°18.22 2°51.051 276.5 15.1 271 11.2
2003-03-21 07:49:27 51°18.221 2°51.011 278 15.1 271 11.3
2003-03-21 07:49:32 51°18.224 2°50.978 281.6 15.1 274 11.3
2003-03-21 07:49:37 51°18.228 2°50.945 285.2 15.1 277 11.4
2003-03-21 07:49:41 51°18.23 2°50.919 286.8 15 279 11.5
2003-03-21 07:49:47 51°18.236 2°50.88 289 15 281 11.5
2003-03-21 07:49:52 51°18.241 2°50.848 290.8 14.9 283 11.5
2003-03-21 07:49:57 51°18.247 2°50.817 294.2 14.9 285 11.6
2003-03-21 07:50:01 51°18.253 2°50.793 297.7 14.8 289 11.6
2003-03-21 07:50:07 51°18.263 2°50.757 300.2 14.7 292 11.8
2003-03-21 07:50:11 51°18.27 2°50.733 303.2 14.7 294 11.8
2003-03-21 07:50:17 51°18.282 2°50.7 307.6 14.6 297 11.9
2003-03-21 07:50:21 51°18.291 2°50.678 311.9 14.5 300 12
2003-03-21 07:50:27 51°18.306 2°50.648 316.7 14.3 305 12.1
2003-03-21 07:50:32 51°18.319 2°50.624 319.3 14.3 309 12.2
2003-03-21 07:50:37 51°18.333 2°50.602 321.7 14.2 311 12.2
2003-03-21 07:50:41 51°18.344 2°50.584 323.7 14.2 313 12.3
2003-03-21 07:50:47 51°18.362 2°50.559 327.7 14.1 316 12.5
2003-03-21 07:50:52 51°18.377 2°50.539 330.9 14.1 319 12.5
2003-03-21 07:50:57 51°18.392 2°50.52 333 14 321 12.5
2003-03-21 07:51:01 51°18.405 2°50.506 335.2 14 323 12.5
2003-03-21 07:51:07 51°18.424 2°50.486 336.4 14 326 12.6
2003-03-21 07:51:12 51°18.441 2°50.471 340 13.9 328 12.8
2003-03-21 07:51:17 51°18.458 2°50.457 343.6 13.8 331 12.8
2003-03-21 07:51:21 51°18.472 2°50.448 346.1 13.7 334 12.8
2003-03-21 07:51:27 51°18.493 2°50.435 348.7 13.7 337 12.8
2003-03-21 07:51:32 51°18.511 2°50.425 351 13.6 339 12.8
2003-03-21 07:51:37 51°18.529 2°50.417 354.9 13.5 342 12.8
2003-03-21 07:51:40 51°18.54 2°50.414 358.3 13.4 345 12.7
2003-03-21 07:51:47 51°18.565 2°50.407 0.9 13.3 349 12.8
2003-03-21 07:51:51 51°18.579 2°50.404 2.9 13.3 351 12.8
2003-03-21 07:51:57 51°18.602 2°50.4 4.6 13.3 353 12.9
2003-03-21 07:52:01 51°18.616 2°50.398 5.8 13.3 354 12.8
2003-03-21 07:52:07 51°18.639 2°50.395 6.9 13.2 355 12.8
2003-03-21 07:52:12 51°18.657 2°50.394 7.9 13.2 356 12.8
2003-03-21 07:52:17 51°18.676 2°50.392 8.7 13.2 357 12.8
2003-03-21 07:52:21 51°18.69 2°50.391 8.7 13.3 357 12.7
2003-03-21 07:52:27 51°18.712 2°50.39 9.3 13.3 358 12.6
2003-03-21 07:52:31 51°18.727 2°50.389 9.7 13.2 358 12.8
2003-03-21 07:52:36 51°18.745 2°50.388 9.8 13.2 358 12.6
2003-03-21 07:52:41 51°18.763 2°50.387 9.8 13.1 358 12.7
2003-03-21 07:52:47 51°18.785 2°50.387 9.7 13.1 358 12.6
2003-03-21 07:52:52 51°18.803 2°50.385 9.7 13.1 358 12.6
2003-03-21 07:52:57 51°18.821 2°50.385 10.1 13.1 359 12.5
2003-03-21 07:53:01 51°18.836 2°50.385 10.2 13.2 359 12.6
2003-03-21 07:53:07 51°18.859 2°50.384 10.1 13.2 359 12.4
2003-03-21 07:53:12 51°18.877 2°50.382 9.9 13.2 358 12.5
2003-03-21 07:53:17 51°18.895 2°50.381 9.8 13.1 358 12.4
2003-03-21 07:53:21 51°18.91 2°50.381 10.1 13.1 358 12.2
2003-03-21 07:53:27 51°18.932 2°50.379 9.9 13.1 358 12.3
2003-03-21 07:53:31 51°18.946 2°50.379 9.8 13.1 358 12.1
2003-03-21 07:53:37 51°18.968 2°50.377 9.8 13.2 358 11.9
2003-03-21 07:53:41 51°18.982 2°50.376 9.6 13.2 357 12
2003-03-21 07:53:47 51°19.004 2°50.372 6.8 13.2 356 11.8
2003-03-21 07:53:52 51°19.022 2°50.367 2.7 13.2 352 11.7
2003-03-21 07:53:57 51°19.04 2°50.36 359.6 13.3 348 11.5
2003-03-21 07:54:01 51°19.054 2°50.352 357 13.4 345 11.6
2003-03-21 07:54:07 51°19.076 2°50.341 354.6 13.5 343 11.4
2003-03-21 07:54:11 51°19.089 2°50.331 350.2 13.5 339 11.3
2003-03-21 07:54:17 51°19.11 2°50.314 346.3 13.7 335 11.1
2003-03-21 07:54:21 51°19.123 2°50.303 344 13.8 332 11.1
2003-03-21 07:54:27 51°19.143 2°50.283 341.5 13.9 330 10.8
2003-03-21 07:54:31 51°19.156 2°50.27 340 13.9 328 10.8
2003-03-21 07:54:37 51°19.174 2°50.248 337 14 326 10.6
2003-03-21 07:54:41 51°19.186 2°50.232 332.8 14 322 10.6
2003-03-21 07:54:47 51°19.203 2°50.205 327.4 14.2 318 10.3
2003-03-21 07:54:52 51°19.215 2°50.18 322.8 14.3 312 10.1
2003-03-21 07:54:57 51°19.226 2°50.153 315 14.4 307 9.9
2003-03-21 07:55:01 51°19.234 2°50.13 309.4 14.5 301 9.9
2003-03-21 07:55:07 51°19.243 2°50.094 304.2 14.6 296 9.7
2003-03-21 07:55:12 51°19.252 2°50.064 303.4 14.7 293 9.7
2003-03-21 07:55:17 51°19.258 2°50.033 300.1 14.8 292 9.3
2003-03-21 07:55:21 51°19.264 2°50.008 297.4 14.9 290 9.3
2003-03-21 07:55:27 51°19.27 2°49.97 293.9 15 288 9.1
2003-03-21 07:55:31 51°19.274 2°49.944 292.2 14.9 285 9.6
2003-03-21 07:55:37 51°19.278 2°49.905 289.6 14.9 283 9.8
2003-03-21 07:55:41 51°19.282 2°49.879 288.7 15 282 10
2003-03-21 07:55:47 51°19.286 2°49.838 285.2 15.2 280 10.2
2003-03-21 07:55:51 51°19.287 2°49.811 282.6 15.4 277 10.5
2003-03-21 07:55:57 51°19.289 2°49.77 280.8 15.4 276 10.8
2003-03-21 07:56:01 51°19.289 2°49.743 279.4 15.5 274 10.8
2003-03-21 07:56:07 51°19.291 2°49.701 278.3 15.6 274 10.5
2003-03-21 07:56:11 51°19.291 2°49.674 277.2 15.7 272 10.5
2003-03-21 07:56:17 51°19.292 2°49.633 276.7 15.6 272 10.6
2003-03-21 07:56:21 51°19.292 2°49.605 276.6 15.5 271 10.8
2003-03-21 07:56:27 51°19.292 2°49.564 276.1 15.5 271 11.2
2003-03-21 07:56:32 51°19.291 2°49.529 275.2 15.6 270 11.5
2003-03-21 07:56:37 51°19.29 2°49.494 275.3 15.7 269 11.8
2003-03-21 07:56:41 51°19.29 2°49.467 274.5 15.7 270 11.8
2003-03-21 07:56:47 51°19.289 2°49.425 274.3 15.7 269 11.9
2003-03-21 07:56:52 51°19.289 2°49.39 272.9 15.8 268 12
2003-03-21 07:56:57 51°19.289 2°49.355 272.5 15.7 268 12.1
2003-03-21 07:57:01 51°19.287 2°49.328 271.1 15.7 267 12.1
2003-03-21 07:57:07 51°19.286 2°49.287 271.4 15.6 267 12.1
2003-03-21 07:57:11 51°19.285 2°49.259 271.4 15.6 266 11.9
2003-03-21 07:57:17 51°19.284 2°49.218 271.3 15.6 266 11.7
2003-03-21 07:57:21 51°19.282 2°49.191 270.5 15.5 266 11.4
2003-03-21 07:57:27 51°19.281 2°49.149 271.4 15.6 266 11.1
2003-03-21 07:57:32 51°19.28 2°49.114 272.1 15.6 267 11.3
2003-03-21 07:57:36 51°19.279 2°49.086 271.9 15.6 267 11.8
2003-03-21 07:57:41 51°19.278 2°49.052 272.9 15.5 267 12.6
2003-03-21 07:57:47 51°19.277 2°49.011 272.3 15.5 268 13
2003-03-21 07:57:51 51°19.275 2°48.983 272.1 15.6 266 13.3
2003-03-21 07:57:57 51°19.274 2°48.942 272.1 15.7 268 13.6
2003-03-21 07:58:01 51°19.272 2°48.914 270.9 15.7 266 13.8
2003-03-21 07:58:07 51°19.271 2°48.872 270.8 15.6 266 13.8
2003-03-21 07:58:11 51°19.27 2°48.845 269.7 15.7 265 13.9
2003-03-21 07:58:16 51°19.268 2°48.81 270.7 15.7 264 14
2003-03-21 07:58:21 51°19.267 2°48.775 270.2 15.7 265 14.1
2003-03-21 07:58:27 51°19.265 2°48.734 269.3 15.7 265 14.3
2003-03-21 07:58:31 51°19.265 2°48.706 271.5 15.7 266 14.4
2003-03-21 07:58:36 51°19.264 2°48.671 274.6 15.7 268 14.6
2003-03-21 07:58:41 51°19.265 2°48.636 280.2 15.6 273 14.7
2003-03-21 07:58:47 51°19.268 2°48.594 285.4 15.5 277 15
2003-03-21 07:58:52 51°19.272 2°48.562 290.4 15.3 281 15.1
2003-03-21 07:58:57 51°19.28 2°48.53 293.2 15.2 285 15.3
2003-03-21 07:59:01 51°19.285 2°48.505 296.1 15.2 286 15.6
2003-03-21 07:59:07 51°19.295 2°48.468 298.3 15.1 290 15.8
2003-03-21 07:59:12 51°19.304 2°48.437 299.6 15.1 290 16
2003-03-21 07:59:17 51°19.314 2°48.407 303.3 15 293 16.2
2003-03-21 07:59:21 51°19.321 2°48.384 306.2 15 296 16.5
2003-03-21 07:59:26 51°19.331 2°48.355 309.6 15 299 16.6
2003-03-21 07:59:32 51°19.345 2°48.321 312.4 15 301 16.8
2003-03-21 07:59:37 51°19.357 2°48.294 313.5 14.9 303 17
2003-03-21 07:59:41 51°19.367 2°48.273 314.6 14.9 304 17.2
2003-03-21 07:59:47 51°19.382 2°48.242 318.3 14.9 306 17.3
2003-03-21 07:59:52 51°19.396 2°48.218 322.4 14.8 309 17.5
2003-03-21 07:59:57 51°19.411 2°48.194 324.6 14.6 312 17.7
2003-03-21 08:00:01 51°19.422 2°48.176 327.2 14.5 315 18
2003-03-21 08:00:07 51°19.438 2°48.151 329.8 14.4 317 18.2
2003-03-21 08:00:12 51°19.453 2°48.131 331.4 14.3 319 18.5
2003-03-21 08:00:17 51°19.468 2°48.112 334.8 14.3 321 18.7
2003-03-21 08:00:21 51°19.481 2°48.099 337.1 14.1 324 18.9
2003-03-21 08:00:27 51°19.501 2°48.08 340.8 13.9 326 19.2
2003-03-21 08:00:32 51°19.519 2°48.067 344.2 13.7 330 19.5
2003-03-21 08:00:37 51°19.536 2°48.056 348.3 13.6 334 19.5
2003-03-21 08:00:41 51°19.551 2°48.048 351.3 13.5 338 19.7
2003-03-21 08:00:47 51°19.572 2°48.036 353.8 13.4 340 20
2003-03-21 08:00:50 51°19.583 2°48.032 355.6 13.3 343 20.1
2003-03-21 08:00:57 51°19.608 2°48.021 357.2 13.2 344 20.2
2003-03-21 08:01:01 51°19.622 2°48.019 358.3 13.2 346 20.3
2003-03-21 08:01:07 51°19.644 2°48.013 359.4 13.2 347 20.2
2003-03-21 08:01:11 51°19.658 2°48.009 0.1 13.2 348 20.4
2003-03-21 08:01:17 51°19.679 2°48.002 0.9 13.2 349 20.4
2003-03-21 08:01:21 51°19.692 2°47.997 1.5 13.2 350 20.5
2003-03-21 08:01:27 51°19.713 2°47.991 1.3 13.2 350 20.5
2003-03-21 08:01:32 51°19.731 2°47.986 1.8 13.3 350 20.6
2003-03-21 08:01:37 51°19.75 2°47.982 1.7 13.3 350 20.6
2003-03-21 08:01:42 51°19.768 2°47.975 2.1 13.3 351 20.4
2003-03-21 08:01:47 51°19.786 2°47.97 2.1 13.3 351 20.5
2003-03-21 08:01:52 51°19.804 2°47.965 2.1 13.3 351 20.6
2003-03-21 08:01:57 51°19.822 2°47.961 2.1 13.3 351 20.5
2003-03-21 08:02:01 51°19.836 2°47.957 2 13.3 351 20.6
2003-03-21 08:02:07 51°19.858 2°47.952 2.1 13.3 351 20.5
2003-03-21 08:02:11 51°19.873 2°47.948 2 13.3 351 20.6
2003-03-21 08:02:17 51°19.896 2°47.942 1.8 13.4 351 20.5
2003-03-21 08:02:21 51°19.91 2°47.939 1.8 13.4 351 20.6
2003-03-21 08:02:27 51°19.932 2°47.933 1.7 13.4 350 20.5
2003-03-21 08:02:31 51°19.946 2°47.928 1.4 13.4 350 20.5
2003-03-21 08:02:37 51°19.968 2°47.922 1.6 13.4 350 20.5
2003-03-21 08:02:41 51°19.982 2°47.918 1.4 13.4 350 20.6
2003-03-21 08:02:47 51°20.003 2°47.912 1.8 13.4 350 20.6
2003-03-21 08:02:51 51°20.018 2°47.907 1.5 13.4 350 20.6
2003-03-21 08:02:57 51°20.042 2°47.901 1.7 13.4 350 20.5
2003-03-21 08:03:01 51°20.058 2°47.897 2.1 13.4 349 20.6
2003-03-21 08:03:07 51°20.079 2°47.889 359.7 13.4 349 20.4
2003-03-21 08:03:11 51°20.094 2°47.881 355.3 13.5 345 20.3
2003-03-21 08:03:17 51°20.115 2°47.868 352.2 13.6 341 20.3
2003-03-21 08:03:21 51°20.129 2°47.858 349.8 13.7 339 20.1
2003-03-21 08:03:27 51°20.148 2°47.842 347.7 13.8 335 20.2
2003-03-21 08:03:31 51°20.161 2°47.83 344.5 13.8 333 20.2
2003-03-21 08:03:37 51°20.18 2°47.809 340.1 13.9 329 19.8
2003-03-21 08:03:41 51°20.192 2°47.794 335.6 14 325 19.6
2003-03-21 08:03:47 51°20.21 2°47.77 333.1 14.1 321 19.7
2003-03-21 08:03:51 51°20.222 2°47.753 330.3 14.2 319 19.6
2003-03-21 08:03:57 51°20.239 2°47.727 328.7 14.3 317 19.4
2003-03-21 08:04:02 51°20.253 2°47.704 327 14.4 315 19.3
2003-03-21 08:04:07 51°20.267 2°47.68 324.8 14.4 314 19.1
2003-03-21 08:04:11 51°20.277 2°47.66 320.7 14.6 310 18.9
2003-03-21 08:04:17 51°20.291 2°47.628 316.4 14.6 307 18.7
2003-03-21 08:04:21 51°20.3 2°47.606 314.2 14.7 304 18.7
2003-03-21 08:04:27 51°20.313 2°47.574 311.5 14.7 302 18.3
2003-03-21 08:04:31 51°20.321 2°47.551 309.1 14.7 300 17.2
2003-03-21 08:04:37 51°20.332 2°47.515 304.2 14.8 297 17.5
2003-03-21 08:04:41 51°20.338 2°47.49 301.6 15 293 17.5
2003-03-21 08:04:47 51°20.348 2°47.452 299.6 15 292 17.4
2003-03-21 08:04:50 51°20.352 2°47.433 297.5 15.1 289 17.1
2003-03-21 08:04:57 51°20.362 2°47.387 295.5 15.1 288 16.9
2003-03-21 08:05:01 51°20.367 2°47.361 295 15.2 286 16.5
2003-03-21 08:05:07 51°20.375 2°47.321 293.2 15.3 286 16.9
2003-03-21 08:05:12 51°20.381 2°47.289 292.6 15.3 285 17
2003-03-21 08:05:17 51°20.384 2°47.255 289.1 15.4 283 15.2
2003-03-21 08:05:21 51°20.388 2°47.228 286.6 15.4 280 16.3
2003-03-21 08:05:27 51°20.391 2°47.187 284.4 15.5 278 16.4
2003-03-21 08:05:31 51°20.392 2°47.16 283.2 15.5 277 15.7
2003-03-21 08:05:37 51°20.393 2°47.119 282 15.4 276 16
2003-03-21 08:05:41 51°20.394 2°47.091 280.1 15.5 274 14
2003-03-21 08:05:47 51°20.397 2°47.05 279.7 15.6 274 15.4
2003-03-21 08:05:51 51°20.398 2°47.022 280 15.6 274 15.9
2003-03-21 08:05:57 51°20.398 2°46.98 278.4 15.6 273 14.8
2003-03-21 08:06:01 51°20.399 2°46.949 279.8 15.7 274 12.8
2003-03-21 08:06:07 51°20.399 2°46.906 278.1 15.7 273 15.2
2003-03-21 08:06:12 51°20.401 2°46.869 279 15.6 273 15.8
2003-03-21 08:06:17 51°20.4 2°46.835 277.1 15.6 272 14.5
2003-03-21 08:06:20 51°20.4 2°46.814 277.8 15.6 272 14.7
2003-03-21 08:06:27 51°20.401 2°46.768 276.8 15.6 272 15.8
2003-03-21 08:06:31 51°20.402 2°46.741 277.7 15.6 271 15.8
2003-03-21 08:06:37 51°20.403 2°46.702 277.2 15.5 272 15.4
2003-03-21 08:06:41 51°20.404 2°46.675 276.3 15.5 271 13.7
2003-03-21 08:06:47 51°20.405 2°46.634 277.2 15.5 271 13.7
2003-03-21 08:06:52 51°20.406 2°46.599 277.9 15.6 272 13
2003-03-21 08:06:57 51°20.407 2°46.565 277.9 15.5 273 14.8
2003-03-21 08:07:02 51°20.409 2°46.531 277.9 15.4 272 16.1
2003-03-21 08:07:07 51°20.409 2°46.497 277.6 15.4 272 14.8
2003-03-21 08:07:11 51°20.41 2°46.47 277.3 15.5 272 15
2003-03-21 08:07:16 51°20.41 2°46.436 277.7 15.4 272 13.3
2003-03-21 08:07:21 51°20.411 2°46.402 276.5 15.5 271 14.5
2003-03-21 08:07:27 51°20.411 2°46.361 276.5 15.5 271 15.6
2003-03-21 08:07:31 51°20.412 2°46.334 278.5 15.5 272 16.6
2003-03-21 08:07:37 51°20.412 2°46.292 278 15.6 272 17.4
2003-03-21 08:07:42 51°20.414 2°46.258 278.1 15.5 273 17.9
2003-03-21 08:07:47 51°20.414 2°46.223 277.9 15.5 272 18.4
2003-03-21 08:07:51 51°20.415 2°46.195 277.8 15.6 273 18.9
2003-03-21 08:07:57 51°20.416 2°46.154 277.7 15.6 272 18.2
2003-03-21 08:08:01 51°20.416 2°46.127 278.7 15.6 273 17.4
2003-03-21 08:08:07 51°20.417 2°46.085 277.3 15.6 273 18
2003-03-21 08:08:11 51°20.418 2°46.057 277.4 15.6 272 18.8
2003-03-21 08:08:17 51°20.419 2°46.016 278 15.6 272 18.3
2003-03-21 08:08:21 51°20.42 2°45.988 275.8 15.6 272 12.1
2003-03-21 08:08:27 51°20.419 2°45.947 273.8 15.6 269 16
2003-03-21 08:08:32 51°20.418 2°45.912 272.8 15.7 268 18.1
2003-03-21 08:08:37 51°20.417 2°45.877 272.8 15.8 267 19.1
2003-03-21 08:08:41 51°20.416 2°45.849 271.4 15.8 267 19.3
2003-03-21 08:08:47 51°20.415 2°45.808 271.4 15.9 267 19.4
2003-03-21 08:08:52 51°20.412 2°45.774 271 15.8 266 20.7
2003-03-21 08:08:57 51°20.41 2°45.74 269.5 15.6 265 20.3
2003-03-21 08:09:01 51°20.409 2°45.712 270.1 15.5 265 19.4
2003-03-21 08:09:07 51°20.406 2°45.672 269.7 15.5 265 20.1
2003-03-21 08:09:11 51°20.405 2°45.645 269.8 15.4 265 20.7
2003-03-21 08:09:17 51°20.402 2°45.605 269.1 15.3 264 21
2003-03-21 08:09:21 51°20.4 2°45.578 269.5 15.3 264 21.8
2003-03-21 08:09:27 51°20.398 2°45.539 269.9 15.2 265 22.1
2003-03-21 08:09:32 51°20.395 2°45.506 268.5 15 264 22.5
2003-03-21 08:09:37 51°20.393 2°45.473 269.1 15 264 22.3
2003-03-21 08:09:42 51°20.39 2°45.44 268.7 15.1 264 22.4
2003-03-21 08:09:47 51°20.388 2°45.407 268.9 15.1 264 22.5
2003-03-21 08:09:52 51°20.387 2°45.374 269.1 15 264 22.6
2003-03-21 08:09:57 51°20.384 2°45.34 269.2 15.1 264 22.6
2003-03-21 08:10:01 51°20.383 2°45.314 269.8 15.1 265 22.7
2003-03-21 08:10:07 51°20.38 2°45.273 268.8 15.1 264 22.8
2003-03-21 08:10:12 51°20.378 2°45.24 269.4 15.1 264 22.7
2003-03-21 08:10:17 51°20.376 2°45.206 269.2 15.2 264 22.8
2003-03-21 08:10:21 51°20.374 2°45.179 269.1 15.2 264 22.7
2003-03-21 08:10:27 51°20.372 2°45.139 269.8 15.2 264 22.3
2003-03-21 08:10:31 51°20.37 2°45.112 269.5 15.2 264 22.7
2003-03-21 08:10:37 51°20.367 2°45.072 269.2 15.2 264 22.9
2003-03-21 08:10:42 51°20.365 2°45.038 269.8 15.2 264 23.1
2003-03-21 08:10:47 51°20.362 2°45.004 266.9 15.2 263 23
2003-03-21 08:10:51 51°20.359 2°44.978 263.1 15.3 260 22.3
2003-03-21 08:10:57 51°20.353 2°44.938 261.2 15.4 258 23
2003-03-21 08:11:01 51°20.348 2°44.911 258.3 15.4 255 23.2
2003-03-21 08:11:07 51°20.341 2°44.872 257 15.5 254 23.2
2003-03-21 08:11:11 51°20.334 2°44.847 253.1 15.4 251 23.3
2003-03-21 08:11:17 51°20.324 2°44.81 250.4 15.3 248 23.5
2003-03-21 08:11:21 51°20.317 2°44.785 247.9 15.2 247 23.2
2003-03-21 08:11:27 51°20.304 2°44.75 244.8 15.2 243 22.4
2003-03-21 08:11:31 51°20.297 2°44.725 243.9 15.3 242 23.3
2003-03-21 08:11:37 51°20.283 2°44.69 241.6 15.4 241 23.3
2003-03-21 08:11:41 51°20.275 2°44.667 241.1 15.4 240 23.3
2003-03-21 08:11:47 51°20.261 2°44.632 239.9 15.4 239 23.4
2003-03-21 08:11:52 51°20.25 2°44.603 239.5 15.5 238 23.5
2003-03-21 08:11:57 51°20.238 2°44.574 239.5 15.5 238 23.6
2003-03-21 08:12:02 51°20.227 2°44.545 238.9 15.5 238 23.6
2003-03-21 08:12:07 51°20.215 2°44.517 238.5 15.5 237 23.7
2003-03-21 08:12:12 51°20.204 2°44.487 239.5 15.6 238 23.9
2003-03-21 08:12:17 51°20.191 2°44.459 238.8 15.6 237 23.3
2003-03-21 08:12:21 51°20.183 2°44.435 239.6 15.5 238 22
2003-03-21 08:12:27 51°20.169 2°44.4 240.9 15.6 238 22.7
2003-03-21 08:12:31 51°20.161 2°44.376 241.1 15.6 239 22.9
2003-03-21 08:12:37 51°20.147 2°44.341 240.6 15.5 239 23.1
2003-03-21 08:12:41 51°20.139 2°44.317 241.2 15.4 240 22.9
2003-03-21 08:12:47 51°20.125 2°44.283 241.1 15.5 239 23.4
2003-03-21 08:12:52 51°20.115 2°44.252 242.3 15.6 240 24
2003-03-21 08:12:57 51°20.103 2°44.223 241.4 15.4 239 24.3
2003-03-21 08:13:01 51°20.095 2°44.2 241.8 15.4 240 22.9
2003-03-21 08:13:07 51°20.083 2°44.164 242.4 15.4 240 23.1
2003-03-21 08:13:11 51°20.074 2°44.14 242.2 15.4 240 23.8
2003-03-21 08:13:17 51°20.061 2°44.104 243.2 15.4 241 23.9
2003-03-21 08:13:21 51°20.052 2°44.081 242.1 15.4 240 23.7
2003-03-21 08:13:27 51°20.04 2°44.045 242.2 15.4 240 23.3
2003-03-21 08:13:32 51°20.028 2°44.015 242 15.5 240 23.6
2003-03-21 08:13:37 51°20.018 2°43.985 243.1 15.5 241 23.5
2003-03-21 08:13:41 51°20.009 2°43.962 242 15.4 240 23.8
2003-03-21 08:13:47 51°19.997 2°43.926 241.9 15.4 240 23.3
2003-03-21 08:13:52 51°19.986 2°43.898 242.1 15.4 240 23.8
2003-03-21 08:13:57 51°19.975 2°43.868 241.8 15.5 240 24.7
2003-03-21 08:14:01 51°19.967 2°43.844 242.7 15.5 240 25
2003-03-21 08:14:07 51°19.954 2°43.809 242.2 15.4 240 25
2003-03-21 08:14:12 51°19.944 2°43.778 242.7 15.5 241 24.9
2003-03-21 08:14:17 51°19.933 2°43.748 243 15.6 241 24.6
2003-03-21 08:14:21 51°19.926 2°43.723 243.8 15.6 242 24.4
2003-03-21 08:14:27 51°19.912 2°43.688 242.7 15.5 241 24
2003-03-21 08:14:32 51°19.902 2°43.657 243.1 15.5 241 23.9
2003-03-21 08:14:37 51°19.892 2°43.627 243.5 15.5 241 23.8
2003-03-21 08:14:41 51°19.883 2°43.603 243.5 15.5 241 23.6
2003-03-21 08:14:47 51°19.87 2°43.568 242.6 15.5 240 23.6
2003-03-21 08:14:52 51°19.86 2°43.538 243.4 15.5 241 23.5
2003-03-21 08:14:57 51°19.849 2°43.509 242.5 15.5 240 23.3
2003-03-21 08:15:01 51°19.841 2°43.484 243.4 15.5 241 23.6
2003-03-21 08:15:07 51°19.827 2°43.449 242.8 15.5 240 23.5
2003-03-21 08:15:11 51°19.819 2°43.424 243.3 15.6 241 23.4
2003-03-21 08:15:17 51°19.806 2°43.388 243 15.7 241 22.9
2003-03-21 08:15:21 51°19.798 2°43.364 243.6 15.7 241 23.4
2003-03-21 08:15:27 51°19.786 2°43.327 244.3 15.7 241 23.4
2003-03-21 08:15:32 51°19.775 2°43.296 243.8 15.7 242 23.5
2003-03-21 08:15:37 51°19.764 2°43.266 243.6 15.7 241 24
2003-03-21 08:15:41 51°19.757 2°43.241 244.5 15.8 242 24.3
2003-03-21 08:15:47 51°19.744 2°43.204 244.2 15.8 242 24.2
2003-03-21 08:15:52 51°19.734 2°43.173 244.4 15.8 242 24.3
2003-03-21 08:15:57 51°19.722 2°43.143 243.4 15.7 242 24.2
2003-03-21 08:16:02 51°19.712 2°43.112 243.4 15.8 241 24.1
2003-03-21 08:16:07 51°19.702 2°43.082 244.3 15.8 241 23.9
2003-03-21 08:16:12 51°19.692 2°43.051 243.9 15.8 241 23.9
2003-03-21 08:16:17 51°19.681 2°43.021 243 15.6 241 23.8
2003-03-21 08:16:21 51°19.673 2°42.997 243.1 15.6 241 23.9
2003-03-21 08:16:27 51°19.66 2°42.961 243.9 15.6 241 23.7
2003-03-21 08:16:32 51°19.65 2°42.931 243.7 15.6 241 23.5
2003-03-21 08:16:37 51°19.639 2°42.901 243.4 15.6 241 23.7
2003-03-21 08:16:41 51°19.631 2°42.877 243.1 15.6 241 23.6
2003-03-21 08:16:47 51°19.618 2°42.84 243.5 15.6 240 23.5
2003-03-21 08:16:51 51°19.609 2°42.816 243.6 15.6 241 23.3
2003-03-21 08:16:57 51°19.597 2°42.78 244.2 15.6 241 23.4
2003-03-21 08:17:01 51°19.589 2°42.754 244.3 15.5 242 23.5
2003-03-21 08:17:07 51°19.576 2°42.719 243.1 15.4 241 23
2003-03-21 08:17:11 51°19.568 2°42.694 243.8 15.6 241 23.1
2003-03-21 08:17:17 51°19.556 2°42.659 244 15.6 241 23
2003-03-21 08:17:22 51°19.545 2°42.63 244.2 15.5 241 23
2003-03-21 08:17:27 51°19.535 2°42.6 243.2 15.5 242 22.9
2003-03-21 08:17:32 51°19.525 2°42.569 244.1 15.5 241 23
2003-03-21 08:17:37 51°19.515 2°42.538 245.7 15.5 243 22.7
2003-03-21 08:17:42 51°19.507 2°42.506 249.3 15.6 245 22.8
2003-03-21 08:17:47 51°19.499 2°42.474 251.1 15.6 248 22.8
2003-03-21 08:17:51 51°19.493 2°42.448 253 15.6 249 22.8
2003-03-21 08:17:57 51°19.487 2°42.408 257.3 15.6 252 22.5
2003-03-21 08:18:02 51°19.481 2°42.375 259.1 15.6 254 22.6
2003-03-21 08:18:07 51°19.476 2°42.341 262 15.6 256 22.6
2003-03-21 08:18:12 51°19.473 2°42.307 264.4 15.5 259 22.3
2003-03-21 08:18:17 51°19.469 2°42.273 265.5 15.5 260 22.2
2003-03-21 08:18:21 51°19.468 2°42.246 268.1 15.4 263 22.1
2003-03-21 08:18:27 51°19.466 2°42.205 272.3 15.5 264 21.9
2003-03-21 08:18:31 51°19.466 2°42.177 274.4 15.6 268 21.9
2003-03-21 08:18:37 51°19.466 2°42.137 276.7 15.5 269 21.6
2003-03-21 08:18:41 51°19.467 2°42.11 279.1 15.5 272 21.6
2003-03-21 08:18:47 51°19.47 2°42.069 281 15.5 273 21.5
2003-03-21 08:18:52 51°19.473 2°42.035 283 15.4 276 21.4
2003-03-21 08:18:57 51°19.476 2°42.002 285.5 15.4 277 21.1
2003-03-21 08:19:01 51°19.48 2°41.976 289.7 15.3 281 21.3
2003-03-21 08:19:07 51°19.485 2°41.935 290.2 15.2 282 20.9
2003-03-21 08:19:12 51°19.491 2°41.903 293.5 15.3 284 20.5
2003-03-21 08:19:17 51°19.498 2°41.87 294.6 15.3 287 20.4
2003-03-21 08:19:21 51°19.502 2°41.844 296.4 15.3 287 20.3
2003-03-21 08:19:27 51°19.512 2°41.807 298.3 15.3 290 20.2
2003-03-21 08:19:31 51°19.517 2°41.781 299.1 15.2 290 19.7
2003-03-21 08:19:37 51°19.528 2°41.746 302.6 15.1 293 18.4
2003-03-21 08:19:41 51°19.535 2°41.722 306.2 15.1 295 19.5
2003-03-21 08:19:47 51°19.548 2°41.688 309.1 14.9 299 18.8
2003-03-21 08:19:52 51°19.559 2°41.66 311.5 15 300 18.6
2003-03-21 08:19:57 51°19.571 2°41.632 312.8 15 303 19
2003-03-21 08:20:01 51°19.581 2°41.61 314 15.1 304 18.1
2003-03-21 08:20:07 51°19.595 2°41.577 316.6 15.1 305 17.8
2003-03-21 08:20:11 51°19.605 2°41.556 317 15 306 17.3
2003-03-21 08:20:17 51°19.62 2°41.524 317.4 15 307 16.8
2003-03-21 08:20:21 51°19.63 2°41.502 317.8 15 307 16.4
2003-03-21 08:20:27 51°19.646 2°41.472 318.6 15 308 15.4
2003-03-21 08:20:32 51°19.658 2°41.445 318.1 15 307 13.3
2003-03-21 08:20:37 51°19.671 2°41.419 318.2 15 307 16
2003-03-21 08:20:42 51°19.684 2°41.392 318.3 15 307 17
2003-03-21 08:20:47 51°19.696 2°41.366 318.9 15.1 307 16.9
2003-03-21 08:20:52 51°19.709 2°41.339 317.9 15.2 308 16.2
2003-03-21 08:20:57 51°19.722 2°41.313 318.7 15.2 308 16.2
2003-03-21 08:21:02 51°19.735 2°41.286 318.3 15.2 308 15.1
2003-03-21 08:21:07 51°19.748 2°41.26 318.5 15.1 307 15.6
2003-03-21 08:21:11 51°19.758 2°41.239 319.5 15.1 308 15.6
2003-03-21 08:21:17 51°19.774 2°41.208 319.9 15.1 309 15.1
2003-03-21 08:21:22 51°19.787 2°41.182 320.8 15.2 309 13.6
2003-03-21 08:21:27 51°19.801 2°41.156 321.3 15.2 310 16
2003-03-21 08:21:32 51°19.814 2°41.131 321.5 15.1 310 15.6
2003-03-21 08:21:37 51°19.828 2°41.105 322.2 15.1 310 15.8
2003-03-21 08:21:41 51°19.839 2°41.085 322.2 15.2 310 17.6
2003-03-21 08:21:47 51°19.856 2°41.057 324.7 15.1 312 18.1
2003-03-21 08:21:50 51°19.865 2°41.042 327 15 314 18.5
2003-03-21 08:21:57 51°19.886 2°41.011 327.8 14.9 316 18.6
2003-03-21 08:22:02 51°19.902 2°40.989 330.5 15.1 317 18.8
2003-03-21 08:22:07 51°19.918 2°40.97 334 15 321 19.8
2003-03-21 08:22:11 51°19.931 2°40.954 335.9 14.8 323 19.7
2003-03-21 08:22:17 51°19.951 2°40.932 338.1 14.6 324 16.8
2003-03-21 08:22:21 51°19.964 2°40.918 339.3 14.6 326 17.2
2003-03-21 08:22:27 51°19.985 2°40.898 340.6 14.5 327 16.7
2003-03-21 08:22:32 51°20.002 2°40.882 341.6 14.6 329 17
2003-03-21 08:22:37 51°20.019 2°40.866 342.4 14.6 329 17.7
2003-03-21 08:22:42 51°20.036 2°40.849 343 14.5 330 18.3
2003-03-21 08:22:47 51°20.054 2°40.833 343.1 14.4 331 19.5
2003-03-21 08:22:52 51°20.071 2°40.818 343.3 14.4 331 20.7
2003-03-21 08:22:57 51°20.089 2°40.803 343.2 14.5 330 21.7
2003-03-21 08:23:02 51°20.106 2°40.787 342.8 14.4 330 22.4
2003-03-21 08:23:07 51°20.123 2°40.772 343 14.4 330 23.6
2003-03-21 08:23:11 51°20.137 2°40.759 343 14.4 330 25.3
2003-03-21 08:23:17 51°20.157 2°40.74 343.1 14.4 331 26.2
2003-03-21 08:23:21 51°20.171 2°40.727 342.6 14.3 330 26.7
2003-03-21 08:23:27 51°20.192 2°40.709 342.4 14.3 330 26.6
2003-03-21 08:23:32 51°20.21 2°40.694 343 14.4 330 26.8
2003-03-21 08:23:37 51°20.227 2°40.679 342.4 14.3 330 27
2003-03-21 08:23:41 51°20.241 2°40.666 342.1 14.3 330 26.9
2003-03-21 08:23:47 51°20.261 2°40.647 341.5 14.3 329 26.9
2003-03-21 08:23:50 51°20.271 2°40.636 338.6 14.2 328 27
2003-03-21 08:23:57 51°20.294 2°40.608 334.9 14.3 324 26.8
2003-03-21 08:24:01 51°20.306 2°40.592 332.8 14.4 321 26.7
2003-03-21 08:24:07 51°20.323 2°40.566 329 14.5 319 26.8
2003-03-21 08:24:11 51°20.334 2°40.547 325.8 14.6 315 26.8
2003-03-21 08:24:17 51°20.351 2°40.518 324.2 14.7 313 26.7
2003-03-21 08:24:22 51°20.363 2°40.492 320.2 14.8 311 26.6
2003-03-21 08:24:27 51°20.374 2°40.465 316.4 14.9 307 26.3
2003-03-21 08:24:32 51°20.386 2°40.437 314.6 14.9 304 26.2
2003-03-21 08:24:37 51°20.396 2°40.408 310.9 15 302 25.8
2003-03-21 08:24:41 51°20.402 2°40.383 305.4 15.1 297 25.6
2003-03-21 08:24:47 51°20.411 2°40.346 300.7 15.2 293 25.5
2003-03-21 08:24:50 51°20.415 2°40.326 297 15.3 289 25.6
2003-03-21 08:24:57 51°20.424 2°40.282 296.9 15.3 287 25.6
2003-03-21 08:25:01 51°20.431 2°40.256 293.9 15.1 285 25.6
2003-03-21 08:25:07 51°20.436 2°40.217 288.2 14.8 283 25.6
2003-03-21 08:25:11 51°20.437 2°40.193 285.2 14.5 279 25.6
2003-03-21 08:25:17 51°20.438 2°40.156 283.3 14.2 276 25.5
2003-03-21 08:25:21 51°20.438 2°40.131 280.9 14 275 25.4
2003-03-21 08:25:27 51°20.437 2°40.093 278.4 13.9 272 25.8
2003-03-21 08:25:32 51°20.438 2°40.063 278.4 13.8 272 25.8
2003-03-21 08:25:37 51°20.437 2°40.032 276.6 13.8 270 25.8
2003-03-21 08:25:42 51°20.438 2°40.002 275.7 13.7 270 25.9
2003-03-21 08:25:47 51°20.437 2°39.972 275.5 13.7 269 25.8
2003-03-21 08:25:52 51°20.437 2°39.941 275.3 13.8 269 25.7
2003-03-21 08:25:57 51°20.436 2°39.911 275 13.7 268 26
2003-03-21 08:26:01 51°20.436 2°39.887 274.4 13.7 269 25.7
2003-03-21 08:26:07 51°20.434 2°39.852 274.9 13.4 268 25.4
2003-03-21 08:26:12 51°20.434 2°39.824 275 12.8 268 25.2
2003-03-21 08:26:17 51°20.433 2°39.798 274.9 12.2 268 24.9
2003-03-21 08:26:21 51°20.432 2°39.778 274.3 11.6 268 24.8
2003-03-21 08:26:27 51°20.431 2°39.749 274 11.1 267 25
2003-03-21 08:26:31 51°20.431 2°39.731 273.3 10.7 267 24.9
2003-03-21 08:26:37 51°20.43 2°39.704 272.9 10.3 266 24.8
2003-03-21 08:26:41 51°20.429 2°39.687 272.6 9.9 266 24.7
2003-03-21 08:26:47 51°20.428 2°39.662 272.1 9.6 266 24.9
2003-03-21 08:26:52 51°20.427 2°39.641 272 9.4 265 24.8
2003-03-21 08:26:57 51°20.425 2°39.621 271.8 9.1 265 24.8
2003-03-21 08:27:01 51°20.425 2°39.606 271.9 9 265 24.6
2003-03-21 08:27:07 51°20.424 2°39.583 272.3 8.7 266 24.5
2003-03-21 08:27:12 51°20.423 2°39.565 272.2 8.6 265 24
2003-03-21 08:27:17 51°20.422 2°39.546 272.4 8.4 265 23.8
2003-03-21 08:27:21 51°20.421 2°39.532 273 8.3 265 23.7
2003-03-21 08:27:27 51°20.42 2°39.511 273 8.1 265 23.5
2003-03-21 08:27:32 51°20.419 2°39.493 272.9 8 265 23.3
2003-03-21 08:27:37 51°20.418 2°39.476 273.1 7.8 265 23.1
2003-03-21 08:27:42 51°20.417 2°39.458 272.8 7.7 265 23.1
2003-03-21 08:27:47 51°20.417 2°39.442 273 7.6 265 23.6
2003-03-21 08:27:51 51°20.416 2°39.428 273.3 7.5 265 23.7
2003-03-21 08:27:57 51°20.415 2°39.408 273.2 7.4 266 23.7
2003-03-21 08:28:01 51°20.414 2°39.395 273 7.4 265 23.6
2003-03-21 08:28:07 51°20.413 2°39.375 272.9 7.3 265 23.7
2003-03-21 08:28:11 51°20.412 2°39.363 272.7 7.3 265 23.8
2003-03-21 08:28:17 51°20.411 2°39.343 272.7 7.2 265 23.5
2003-03-21 08:28:21 51°20.411 2°39.331 272.5 7.1 265 23.6
2003-03-21 08:28:27 51°20.409 2°39.314 271.9 7.1 264 23.3
2003-03-21 08:28:32 51°20.409 2°39.299 271.8 7 264 23.4
2003-03-21 08:28:37 51°20.408 2°39.284 272.1 6.9 264 23.3
2003-03-21 08:28:41 51°20.407 2°39.273 272.4 6.8 264 23.1
2003-03-21 08:28:47 51°20.406 2°39.255 272.8 6.7 264 22.7
2003-03-21 08:28:50 51°20.406 2°39.246 272.9 6.7 264 22.5
2003-03-21 08:28:57 51°20.404 2°39.225 272.7 6.7 264 22
2003-03-21 08:29:01 51°20.404 2°39.213 272.8 6.6 264 22.4
2003-03-21 08:29:07 51°20.402 2°39.196 272.8 6.6 264 22.1
2003-03-21 08:29:12 51°20.401 2°39.182 272.4 6.6 264 22.6
2003-03-21 08:29:17 51°20.4 2°39.167 272.1 6.5 263 23
2003-03-21 08:29:21 51°20.399 2°39.156 271.7 6.5 263 23.1
2003-03-21 08:29:27 51°20.397 2°39.138 271.8 6.6 263 23.2
2003-03-21 08:29:31 51°20.397 2°39.127 271.7 6.5 263 23.2
2003-03-21 08:29:37 51°20.395 2°39.11 271.4 6.6 262 23.3
2003-03-21 08:29:42 51°20.394 2°39.096 271.5 6.5 263 23.4
2003-03-21 08:29:47 51°20.393 2°39.082 272.1 6.5 263 23.1
2003-03-21 08:29:51 51°20.391 2°39.071 272.5 6.5 263 23
2003-03-21 08:29:57 51°20.39 2°39.053 272.6 6.4 263 22.9
2003-03-21 08:30:01 51°20.389 2°39.042 272.5 6.4 263 23
2003-03-21 08:30:07 51°20.388 2°39.025 272.9 6.4 263 22.8
2003-03-21 08:30:11 51°20.387 2°39.014 272.9 6.4 264 22.8
2003-03-21 08:30:17 51°20.385 2°38.998 273 6.4 264 22.8
2003-03-21 08:30:21 51°20.384 2°38.987 272.6 6.4 263 22.4
2003-03-21 08:30:27 51°20.383 2°38.97 272.9 6.4 263 22.8
2003-03-21 08:30:32 51°20.382 2°38.956 272.9 6.4 264 23.1
2003-03-21 08:30:37 51°20.381 2°38.942 273.3 6.4 264 23
2003-03-21 08:30:42 51°20.381 2°38.928 273.4 6.3 264 23.1
2003-03-21 08:30:47 51°20.38 2°38.913 273.5 6.4 264 22.7
2003-03-21 08:30:51 51°20.379 2°38.902 273.6 6.4 264 22.7
2003-03-21 08:30:57 51°20.378 2°38.885 272.9 6.4 263 22.7
2003-03-21 08:31:01 51°20.377 2°38.874 272.8 6.3 263 22.5
2003-03-21 08:31:07 51°20.376 2°38.857 272.4 6.4 263 22
2003-03-21 08:31:11 51°20.376 2°38.846 272.1 6.4 263 21.1
2003-03-21 08:31:17 51°20.374 2°38.829 272.2 6.4 263 21.8
2003-03-21 08:31:21 51°20.373 2°38.819 272.3 6.4 263 22.7
2003-03-21 08:31:27 51°20.372 2°38.802 272.5 6.4 263 22.9
2003-03-21 08:31:32 51°20.371 2°38.787 273.2 6.4 264 22.9
2003-03-21 08:31:37 51°20.37 2°38.773 273.7 6.4 264 23.2
2003-03-21 08:31:42 51°20.369 2°38.759 273.8 6.3 264 22.9
2003-03-21 08:31:47 51°20.368 2°38.745 274.7 6.3 264 22.8
2003-03-21 08:31:52 51°20.367 2°38.731 275.1 6.3 265 22.8
2003-03-21 08:31:57 51°20.367 2°38.717 275.4 6.3 265 22.7
2003-03-21 08:32:01 51°20.366 2°38.706 275.4 6.3 265 22.8
2003-03-21 08:32:07 51°20.366 2°38.69 275.3 6.3 265 22.9
2003-03-21 08:32:11 51°20.365 2°38.678 275.3 6.3 265 22.7
2003-03-21 08:32:17 51°20.364 2°38.662 274.9 6.3 265 22.9
2003-03-21 08:32:21 51°20.364 2°38.651 275 6.3 265 22.8
2003-03-21 08:32:27 51°20.363 2°38.634 275 6.3 266 22.7
2003-03-21 08:32:31 51°20.363 2°38.622 275.3 6.3 265 22.7
2003-03-21 08:32:37 51°20.362 2°38.606 275 6.3 265 22.5
2003-03-21 08:32:41 51°20.361 2°38.595 275.1 6.3 265 22.3
2003-03-21 08:32:47 51°20.36 2°38.578 275.2 6.3 266 21.7
2003-03-21 08:32:51 51°20.359 2°38.566 275.1 6.3 266 21.9
2003-03-21 08:32:57 51°20.358 2°38.549 275.2 6.3 265 22.2
2003-03-21 08:33:02 51°20.358 2°38.535 275 6.3 265 22.2
2003-03-21 08:33:07 51°20.357 2°38.522 275 6.3 265 22.3
2003-03-21 08:33:11 51°20.356 2°38.511 274.8 6.4 265 21.9
2003-03-21 08:33:17 51°20.355 2°38.494 274.7 6.3 265 21.9
2003-03-21 08:33:21 51°20.355 2°38.482 275 6.4 265 21.5
2003-03-21 08:33:26 51°20.354 2°38.468 275.2 6.4 265 21.2